.
WxDataArchive / Data Records for 2013-06-08
2013-06-07 June 2013 2013-06-09

Data Records for Saturday, 08 June 2013

Time	Temp	Chill	HIndex	Humid	Dewpt	 Wind 	HiWind	WindDir	Rain 	Barom 
-----	----	-----	------	-----	-----	------	------	-------	-----	----- 
00:00	54.7	54.7	54.7	84	50.0	0	0	---	0.00	29.898 
00:05	54.5	54.5	54.5	84	49.8	0	0	---	0.00	29.898 
00:10	54.4	54.4	54.4	85	50.0	0	0	---	0.00	29.898 
00:15	54.2	54.2	54.2	85	49.8	0	0	---	0.00	29.895 
00:20	53.9	53.9	53.9	85	49.5	0	0	---	0.00	29.895 
00:25	53.8	53.8	53.8	86	49.7	0	0	---	0.00	29.895 
00:30	53.6	53.6	53.6	86	49.5	0	0	---	0.00	29.897 
00:35	53.5	53.5	53.5	86	49.4	0	0	---	0.00	29.897 
00:40	53.3	53.3	53.3	87	49.5	0	0	---	0.00	29.897 
00:45	53.2	53.2	53.2	87	49.4	0	0	---	0.00	29.907 
00:50	53.1	53.1	53.1	87	49.3	0	0	---	0.00	29.907 
00:55	52.9	52.9	52.9	87	49.1	0	0	---	0.00	29.907 
01:00	52.9	52.9	52.9	88	49.4	0	0	---	0.00	29.905 
01:05	52.8	52.8	52.8	88	49.3	0	0	---	0.00	29.905 
01:10	52.6	52.6	52.6	88	49.1	0	0	---	0.00	29.905 
01:15	52.5	52.5	52.5	88	49.0	0	0	---	0.00	29.900 
01:20	52.3	52.3	52.3	88	48.9	0	0	---	0.00	29.900 
01:25	52.2	52.2	52.2	89	49.1	0	0	---	0.00	29.900 
01:30	52.2	52.2	52.2	89	49.1	0	0	---	0.00	29.902 
01:35	52.0	52.0	52.0	89	48.9	0	0	---	0.00	29.902 
01:40	51.9	51.9	51.9	89	48.8	0	0	---	0.00	29.902 
01:45	51.7	51.7	51.7	89	48.6	0	0	---	0.00	29.903 
01:50	51.7	51.7	51.7	90	48.9	0	0	---	0.00	29.903 
01:55	51.6	51.6	51.6	90	48.8	0	0	---	0.00	29.903 
02:00	51.4	51.4	51.4	90	48.6	0	0	---	0.00	29.904 
02:05	51.4	51.4	51.4	90	48.6	0	0	---	0.00	29.904 
02:10	51.3	51.3	51.3	90	48.5	0	0	---	0.00	29.904 
02:15	51.3	51.3	51.3	91	48.8	0	0	---	0.00	29.904 
02:20	51.1	51.1	51.1	91	48.6	0	0	---	0.00	29.904 
02:25	51.0	51.0	51.0	91	48.5	0	0	---	0.00	29.904 
02:30	51.0	51.0	51.0	91	48.5	0	0	---	0.00	29.905 
02:35	50.8	50.8	50.8	91	48.3	0	0	---	0.00	29.905 
02:40	50.8	50.8	50.8	91	48.3	0	0	---	0.00	29.905 
02:45	50.7	50.7	50.7	91	48.2	0	0	---	0.00	29.904 
02:50	50.7	50.7	50.7	91	48.2	0	0	---	0.00	29.904 
02:55	50.5	50.5	50.5	91	48.0	0	0	---	0.00	29.904 
03:00	50.5	50.5	50.5	91	48.0	0	0	---	0.00	29.904 
03:05	50.4	50.4	50.4	92	48.2	0	0	---	0.00	29.904 
03:10	50.4	50.4	50.4	92	48.2	0	0	---	0.00	29.904 
03:15	50.4	50.4	50.4	92	48.2	0	0	---	0.00	29.905 
03:20	50.2	50.2	50.2	92	48.0	0	0	---	0.00	29.905 
03:25	50.1	50.1	50.1	92	47.9	0	0	---	0.00	29.905 
03:30	49.9	49.9	49.9	92	47.7	0	0	---	0.00	29.906 
03:35	49.9	49.9	49.9	92	47.7	0	0	---	0.00	29.906 
03:40	49.8	49.8	49.8	92	47.6	0	0	---	0.00	29.906 
03:45	49.8	49.8	49.8	92	47.6	0	0	---	0.00	29.906 
03:50	49.8	49.8	49.8	92	47.6	0	0	---	0.00	29.906 
03:55	49.8	49.8	49.8	92	47.6	0	0	---	0.00	29.906 
04:00	49.8	49.8	49.8	92	47.6	0	0	---	0.00	29.908 
04:05	49.8	49.8	49.8	92	47.6	0	0	---	0.00	29.908 
04:10	49.8	49.8	49.8	92	47.6	0	0	---	0.00	29.908 
04:15	49.6	49.6	49.6	92	47.4	0	0	---	0.00	29.909 
04:20	49.6	49.6	49.6	92	47.4	0	0	---	0.00	29.909 
04:25	49.5	49.5	49.5	93	47.6	0	0	---	0.00	29.909 
04:30	49.4	49.4	49.4	93	47.5	0	0	---	0.00	29.907 
04:35	49.4	49.4	49.4	93	47.5	0	0	---	0.00	29.907 
04:40	49.2	49.2	49.2	93	47.3	0	0	---	0.00	29.907 
04:45	49.2	49.2	49.2	93	47.3	0	0	---	0.00	29.909 
04:50	49.1	49.1	49.1	93	47.2	0	0	---	0.00	29.909 
04:55	49.1	49.1	49.1	93	47.2	0	0	---	0.00	29.909 
05:00	49.1	49.1	49.1	93	47.2	0	0	---	0.00	29.912 
05:05	48.9	48.9	48.9	93	47.0	0	0	---	0.00	29.912 
05:10	48.9	48.9	48.9	93	47.0	0	0	---	0.00	29.912 
05:15	48.9	48.9	48.9	93	47.0	0	0	---	0.00	29.920 
05:20	48.8	48.8	48.8	93	46.9	0	0	---	0.00	29.920 
05:25	48.8	48.8	48.8	93	46.9	0	0	---	0.00	29.920 
05:30	48.8	48.8	48.8	93	46.9	0	0	---	0.00	29.924 
05:35	48.6	48.6	48.6	93	46.7	0	0	---	0.00	29.924 
05:40	48.6	48.6	48.6	93	46.7	0	0	---	0.00	29.924 
05:45	48.5	48.5	48.5	93	46.6	0	0	---	0.00	29.927 
05:50	48.5	48.5	48.5	93	46.6	0	0	---	0.00	29.927 
05:55	48.3	48.3	48.3	93	46.4	0	0	---	0.00	29.927 
06:00	48.3	48.3	48.3	93	46.4	0	0	---	0.00	29.930 
06:05	48.3	48.3	48.3	93	46.4	0	0	---	0.00	29.930 
06:10	48.2	48.2	48.2	93	46.3	0	0	---	0.00	29.930 
06:15	48.2	48.2	48.2	93	46.3	0	0	---	0.00	29.933 
06:20	48.0	48.0	48.0	94	46.4	0	0	---	0.00	29.933 
06:25	48.2	48.2	48.2	94	46.6	0	0	---	0.00	29.933 
06:30	48.2	48.2	48.2	94	46.6	0	0	---	0.00	29.937 
06:35	48.3	48.3	48.3	94	46.7	0	0	---	0.00	29.937 
06:40	48.3	48.3	48.3	94	46.7	0	0	---	0.00	29.937 
06:45	48.3	48.3	48.3	94	46.7	0	0	---	0.00	29.941 
06:50	48.5	48.5	48.5	94	46.9	0	0	---	0.00	29.941 
06:55	48.5	48.5	48.5	94	46.9	0	0	---	0.00	29.941 
07:00	48.8	48.8	48.8	94	47.1	0	0	---	0.00	29.939 
07:05	48.9	48.9	48.9	94	47.2	0	0	---	0.00	29.939 
07:10	49.4	49.4	49.4	94	47.7	0	0	---	0.00	29.939 
07:15	49.9	49.9	49.9	95	48.5	0	0	---	0.00	29.943 
07:20	50.5	50.5	50.5	95	49.1	0	0	---	0.00	29.943 
07:25	51.1	51.1	51.1	95	49.7	0	0	---	0.00	29.943 
07:30	51.7	51.7	51.7	95	50.3	0	0	---	0.00	29.943 
07:35	52.5	52.5	52.5	95	51.1	0	0	---	0.00	29.943 
07:40	53.3	53.3	53.3	96	52.2	0	0	---	0.00	29.943 
07:45	54.5	54.5	54.5	95	53.1	0	0	---	0.00	29.940 
07:50	55.7	55.7	55.7	95	54.3	0	0	---	0.00	29.940 
07:55	56.6	56.6	56.6	93	54.6	0	1	112	0.00	29.940 
08:00	57.5	57.5	57.5	91	54.9	0	1	112	0.00	29.941 
08:05	58.4	58.4	58.4	88	54.9	0	1	112	0.00	29.941 
08:10	59.3	59.3	59.3	84	54.5	0	1	112	0.00	29.941 
08:15	59.9	59.9	59.9	83	54.7	0	1	112	0.00	29.953 
08:20	60.7	60.7	60.7	80	54.5	0	1	112	0.00	29.953 
08:25	61.6	61.6	61.6	76	54.0	0	1	112	0.00	29.953 
08:30	62.3	62.3	62.3	74	53.9	0	3	112	0.00	29.952 
08:35	63.1	63.1	63.1	72	53.9	0	2	112	0.00	29.952 
08:40	63.5	63.5	63.5	70	53.5	0	3	112	0.00	29.952 
08:45	63.9	63.9	63.9	67	52.7	0	2	112	0.00	29.955 
08:50	64.3	64.3	64.3	67	53.1	0	2	112	0.00	29.955 
08:55	65.0	65.0	65.0	66	53.4	0	2	112	0.00	29.955 
09:00	65.6	65.6	65.6	66	53.9	0	1	112	0.00	29.956 
09:05	65.8	65.8	65.8	64	53.3	1	3	112	0.00	29.956 
09:10	66.0	66.0	66.0	62	52.6	0	3	112	0.00	29.956 
09:15	66.1	66.1	66.1	62	52.7	0	2	112	0.00	29.966 
09:20	66.4	66.4	66.4	62	53.0	0	1	112	0.00	29.966 
09:25	66.9	66.9	66.9	59	52.1	0	2	112	0.00	29.966 
09:30	66.9	66.9	66.9	58	51.6	1	3	112	0.00	29.967 
09:35	66.9	66.9	66.9	58	51.6	1	3	112	0.00	29.967 
09:40	67.3	67.3	67.3	61	53.4	0	2	112	0.00	29.967 
09:45	67.4	67.4	67.4	60	53.0	0	1	112	0.00	29.968 
09:50	67.9	67.9	67.9	58	52.6	0	2	112	0.00	29.968 
09:55	67.8	67.8	67.8	59	52.9	0	1	112	0.00	29.968 
10:00	68.3	68.3	68.3	58	52.9	0	2	112	0.00	29.971 
10:05	68.6	68.6	68.6	56	52.3	1	5	112	0.00	29.971 
10:10	68.4	68.4	68.4	59	53.5	1	5	90	0.00	29.971 
10:15	68.6	68.6	68.6	58	53.2	0	1	90	0.00	29.978 
10:20	68.4	68.4	68.4	56	52.1	0	2	90	0.00	29.978 
10:25	68.4	68.4	68.4	58	53.0	0	1	90	0.00	29.978 
10:30	68.8	68.8	68.8	55	52.0	0	4	90	0.00	29.973 
10:35	68.9	68.9	68.9	53	51.1	1	4	90	0.00	29.973 
10:40	69.4	69.4	69.4	56	53.0	0	1	90	0.00	29.973 
10:45	69.6	69.6	69.6	51	50.7	1	3	90	0.00	29.970 
10:50	69.3	69.3	69.3	54	51.9	1	4	90	0.00	29.970 
10:55	69.3	69.3	69.3	56	52.9	0	2	90	0.00	29.970 
11:00	69.1	69.1	69.1	58	53.7	0	1	90	0.00	29.968 
11:05	68.6	68.6	68.6	54	51.3	0	2	90	0.00	29.968 
11:10	68.9	68.9	68.9	55	52.1	0	3	90	0.00	29.968 
11:15	69.8	69.8	69.8	54	52.4	0	2	90	0.00	29.975 
11:20	70.6	70.6	70.6	53	52.6	1	3	90	0.00	29.975 
11:25	70.8	70.8	70.8	53	52.8	1	4	90	0.00	29.975 
11:30	71.1	71.1	71.1	51	52.0	0	2	90	0.00	29.974 
11:35	71.3	71.3	71.3	50	51.7	1	4	90	0.00	29.974 
11:40	70.6	70.6	70.6	52	52.1	0	2	90	0.00	29.974 
11:45	69.9	69.9	69.9	53	52.0	0	1	90	0.00	29.982 
11:50	69.6	69.6	69.6	53	51.7	1	2	68	0.00	29.982 
11:55	70.4	70.4	70.4	54	52.9	1	4	68	0.00	29.982 
12:00	71.1	71.1	71.1	52	52.6	1	3	68	0.00	29.982 
12:05	71.3	71.3	71.3	53	53.3	0	1	180	0.00	29.982 
12:10	71.8	71.8	71.8	54	54.2	0	2	180	0.00	29.982 
12:15	72.5	72.5	72.5	49	52.2	1	3	180	0.00	29.980 
12:20	72.8	72.8	72.8	49	52.5	0	2	180	0.00	29.980 
12:25	73.2	73.2	73.2	50	53.4	0	1	180	0.00	29.980 
12:30	73.0	73.0	73.0	53	54.8	0	1	180	0.00	29.977 
12:35	73.0	73.0	73.0	49	52.7	1	3	180	0.00	29.977 
12:40	72.8	72.8	72.8	53	54.7	0	2	180	0.00	29.977 
12:45	73.0	73.0	73.0	49	52.7	1	3	180	0.00	29.972 
12:50	73.2	73.2	73.2	49	52.9	1	4	112	0.00	29.972 
12:55	73.3	73.3	73.3	47	51.8	0	2	112	0.00	29.972 
13:00	73.0	73.0	73.0	46	51.0	0	1	112	0.00	29.974 
13:05	72.8	72.8	72.8	47	51.4	0	1	112	0.00	29.974 
13:10	72.8	72.8	72.8	47	51.4	0	1	112	0.00	29.974 
13:15	72.7	72.7	72.7	48	51.9	1	4	112	0.00	29.969 
13:20	72.5	72.5	72.5	51	53.3	0	2	90	0.00	29.969 
13:25	72.8	72.8	72.8	51	53.6	0	2	90	0.00	29.969 
13:30	73.5	73.5	73.5	47	52.0	1	2	90	0.00	29.970 
13:35	73.7	73.7	73.7	48	52.8	2	4	90	0.00	29.970 
13:40	74.0	74.0	74.0	47	52.5	0	2	90	0.00	29.970 
13:45	74.6	74.6	74.6	47	53.0	0	2	90	0.00	29.968 
13:50	74.7	74.7	74.7	48	53.7	0	2	90	0.00	29.968 
13:55	75.3	75.3	77.7	48	54.2	1	4	90	0.00	29.968 
14:00	75.3	75.3	77.7	45	52.5	1	3	68	0.00	29.968 
14:05	74.9	74.9	74.9	44	51.5	1	3	68	0.00	29.968 
14:10	74.2	74.2	74.2	47	52.7	0	3	45	0.00	29.968 
14:15	73.7	73.7	73.7	44	50.4	1	3	45	0.00	29.970 
14:20	73.2	73.2	73.2	45	50.6	1	3	45	0.00	29.970 
14:25	73.5	73.5	73.5	46	51.4	0	2	45	0.00	29.970 
14:30	74.0	74.0	74.0	44	50.7	0	2	45	0.00	29.973 
14:35	73.9	73.9	73.9	46	51.8	0	2	45	0.00	29.973 
14:40	73.9	73.9	73.9	46	51.8	1	3	292	0.00	29.973 
14:45	73.9	73.9	73.9	42	49.3	1	5	112	0.00	29.973 
14:50	73.9	73.9	73.9	45	51.2	0	2	112	0.00	29.973 
14:55	73.7	73.7	73.7	43	49.8	0	1	112	0.00	29.973 
15:00	73.7	73.7	73.7	45	51.0	0	1	112	0.00	29.968 
15:05	74.0	74.0	74.0	44	50.7	0	2	112	0.00	29.968 
15:10	74.4	74.4	74.4	42	49.8	1	3	112	0.00	29.968 
15:15	74.4	74.4	74.4	43	50.4	1	2	112	0.00	29.966 
15:20	74.0	74.0	74.0	43	50.1	1	3	112	0.00	29.966 
15:25	74.0	74.0	74.0	43	50.1	0	3	112	0.00	29.966 
15:30	74.0	74.0	74.0	41	48.8	0	2	112	0.00	29.961 
15:35	74.4	74.4	74.4	42	49.8	0	1	112	0.00	29.961 
15:40	75.1	75.1	77.6	41	49.8	0	2	112	0.00	29.961 
15:45	75.8	75.8	77.8	43	51.7	0	1	112	0.00	29.964 
15:50	76.0	76.0	77.8	39	49.2	0	1	112	0.00	29.964 
15:55	75.8	75.8	77.7	40	49.7	0	1	112	0.00	29.964 
16:00	75.4	75.4	77.6	39	48.7	0	3	112	0.00	29.967 
16:05	74.9	74.9	74.9	40	48.9	1	3	112	0.00	29.967 
16:10	74.7	74.7	74.7	39	48.1	0	1	112	0.00	29.967 
16:15	74.7	74.7	74.7	43	50.7	0	2	112	0.00	29.966 
16:20	75.1	75.1	77.6	43	51.1	1	3	112	0.00	29.966 
16:25	75.8	75.8	77.8	41	50.4	1	3	112	0.00	29.966 
16:30	76.5	76.5	78.1	41	51.0	0	2	112	0.00	29.958 
16:35	76.7	76.7	78.1	40	50.5	0	2	112	0.00	29.958 
16:40	77.2	77.2	78.3	40	51.0	0	2	112	0.00	29.958 
16:45	77.6	77.6	78.5	39	50.7	1	4	112	0.00	29.954 
16:50	77.2	77.2	78.2	37	48.9	0	3	112	0.00	29.954 
16:55	77.0	77.0	78.1	38	49.4	0	1	112	0.00	29.954 
17:00	77.0	77.0	78.2	39	50.1	0	1	112	0.00	29.954 
17:05	77.2	77.2	78.3	40	51.0	0	1	112	0.00	29.954 
17:10	77.9	77.9	78.5	37	49.5	0	1	112	0.00	29.954 
17:15	78.3	78.3	78.7	37	49.9	0	1	112	0.00	29.958 
17:20	78.3	78.3	78.8	38	50.6	0	1	112	0.00	29.958 
17:25	78.3	78.3	78.8	38	50.6	0	2	112	0.00	29.958 
17:30	78.1	78.1	78.7	39	51.1	0	1	112	0.00	29.962 
17:35	78.1	78.1	78.7	38	50.4	0	1	112	0.00	29.962 
17:40	77.9	77.9	78.6	39	50.9	0	1	112	0.00	29.962 
17:45	77.4	77.4	78.2	36	48.3	0	1	112	0.00	29.967 
17:50	77.2	77.2	78.3	39	50.3	0	1	112	0.00	29.967 
17:55	76.7	76.7	78.0	37	48.4	0	2	112	0.00	29.967 
18:00	76.5	76.5	78.0	39	49.7	0	1	112	0.00	29.967 
18:05	76.5	76.5	78.0	39	49.7	0	2	112	0.00	29.967 
18:10	76.3	76.3	77.8	38	48.8	0	3	112	0.00	29.967 
18:15	76.1	76.1	77.8	39	49.3	0	1	112	0.00	29.968 
18:20	76.0	76.0	77.8	39	49.2	0	1	112	0.00	29.968 
18:25	76.1	76.1	77.8	39	49.3	0	1	112	0.00	29.968 
18:30	76.0	76.0	77.8	39	49.2	0	1	112	0.00	29.970 
18:35	75.8	75.8	77.7	39	49.1	0	1	112	0.00	29.970 
18:40	75.6	75.6	77.6	38	48.2	0	1	112	0.00	29.970 
18:45	75.4	75.4	77.6	41	50.0	0	1	112	0.00	29.970 
18:50	75.6	75.6	77.7	40	49.6	0	1	112	0.00	29.970 
18:55	75.6	75.6	77.7	40	49.6	0	1	112	0.00	29.970 
19:00	75.8	75.8	77.7	40	49.7	0	1	112	0.00	29.970 
19:05	75.6	75.6	77.7	42	50.9	0	1	112	0.00	29.970 
19:10	75.4	75.4	77.6	41	50.0	0	1	112	0.00	29.970 
19:15	75.3	75.3	77.6	41	50.0	0	1	112	0.00	29.966 
19:20	75.3	75.3	77.6	42	50.6	0	0	---	0.00	29.966 
19:25	75.4	75.4	77.6	41	50.0	0	0	---	0.00	29.966 
19:30	75.4	75.4	77.7	43	51.3	0	0	---	0.00	29.973 
19:35	75.4	75.4	77.7	42	50.7	0	0	---	0.00	29.973 
19:40	75.3	75.3	77.7	44	51.9	0	0	---	0.00	29.973 
19:45	74.9	74.9	74.9	41	49.6	0	0	---	0.00	29.976 
19:50	74.6	74.6	74.6	42	50.0	0	0	---	0.00	29.976 
19:55	74.2	74.2	74.2	43	50.2	0	0	---	0.00	29.976 
20:00	73.9	73.9	73.9	43	50.0	0	0	---	0.00	29.976 
20:05	73.7	73.7	73.7	44	50.4	0	0	---	0.00	29.976 
20:10	73.5	73.5	73.5	45	50.8	0	0	---	0.00	29.976 
20:15	73.2	73.2	73.2	46	51.2	0	0	---	0.00	29.974 
20:20	72.8	72.8	72.8	46	50.8	0	0	---	0.00	29.974 
20:25	72.7	72.7	72.7	48	51.9	0	0	---	0.00	29.974 
20:30	72.5	72.5	72.5	49	52.2	0	0	---	0.00	29.974 
20:35	72.3	72.3	72.3	49	52.1	0	0	---	0.00	29.974 
20:40	72.0	72.0	72.0	48	51.2	0	0	---	0.00	29.974 
20:45	71.6	71.6	71.6	48	50.9	0	0	---	0.00	29.975 
20:50	71.5	71.5	71.5	48	50.8	0	0	---	0.00	29.975 
20:55	71.1	71.1	71.1	50	51.5	0	0	---	0.00	29.975 
21:00	70.8	70.8	70.8	49	50.7	0	0	---	0.00	29.977 
21:05	70.4	70.4	70.4	50	50.9	0	0	---	0.00	29.977 
21:10	70.1	70.1	70.1	52	51.6	0	0	---	0.00	29.977 
21:15	69.8	69.8	69.8	53	51.9	0	0	---	0.00	29.980 
21:20	69.4	69.4	69.4	54	52.0	0	0	---	0.00	29.980 
21:25	69.3	69.3	69.3	55	52.4	0	0	---	0.00	29.980 
21:30	69.1	69.1	69.1	56	52.7	0	0	---	0.00	29.987 
21:35	68.9	68.9	68.9	58	53.5	0	0	---	0.00	29.987 
21:40	68.8	68.8	68.8	58	53.4	0	0	---	0.00	29.987 
21:45	68.6	68.6	68.6	57	52.7	0	0	---	0.00	29.989 
21:50	68.6	68.6	68.6	56	52.3	0	0	---	0.00	29.989 
21:55	68.4	68.4	68.4	55	51.6	0	0	---	0.00	29.989 
22:00	68.6	68.6	68.6	57	52.7	0	1	112	0.00	29.992 
22:05	68.8	68.8	68.8	55	52.0	0	1	112	0.00	29.992 
22:10	69.1	69.1	69.1	54	51.7	0	1	112	0.00	29.992 
22:15	69.3	69.3	69.3	55	52.4	0	1	112	0.00	29.997 
22:20	69.3	69.3	69.3	54	51.9	0	1	112	0.00	29.997 
22:25	69.3	69.3	69.3	54	51.9	0	1	112	0.00	29.997 
22:30	69.3	69.3	69.3	54	51.9	0	0	---	0.00	30.002 
22:35	69.3	69.3	69.3	55	52.4	0	0	---	0.00	30.002 
22:40	69.1	69.1	69.1	55	52.2	0	1	112	0.00	30.002 
22:45	69.3	69.3	69.3	54	51.9	0	1	112	0.00	30.004 
22:50	69.3	69.3	69.3	54	51.9	0	0	---	0.00	30.004 
22:55	69.4	69.4	69.4	55	52.5	0	0	---	0.00	30.004 
23:00	69.3	69.3	69.3	55	52.4	0	0	---	0.00	30.005 
23:05	69.3	69.3	69.3	56	52.9	0	0	---	0.00	30.005 
23:10	69.1	69.1	69.1	56	52.7	0	0	---	0.00	30.005 
23:15	68.9	68.9	68.9	57	53.0	0	1	112	0.00	30.004 
23:20	68.8	68.8	68.8	57	52.9	0	0	---	0.00	30.004 
23:25	68.6	68.6	68.6	58	53.2	0	0	---	0.00	30.004 
23:30	68.4	68.4	68.4	58	53.0	0	0	---	0.00	30.006 
23:35	68.3	68.3	68.3	59	53.4	0	0	---	0.00	30.006 
23:40	67.9	67.9	67.9	60	53.5	0	0	---	0.00	30.006 
23:45	67.8	67.8	67.8	61	53.9	0	0	---	0.00	30.008 
23:50	67.6	67.6	67.6	61	53.7	0	0	---	0.00	30.008 
23:55	67.4	67.4	67.4	62	53.9	0	1	112	0.00	30.008 

CoCoRaHS
IN-AL-39
A2 Web Hosting
Creative Commons License
GoDaddy
search engine by freefind advanced

loaded 2018-11-13 21:16:43 • last modified 2010-11-18 10:43:29
Privacy PolicyDisclaimer
• wx.awcolley.com is powered by PmWiki v.2002016 •
• all content (unless otherwise noted) © 2018 A W Colley